Search for airport 
image banner adimage banner adimage banner ad
image banner ad

CA96 - Goleta Valley Community Hospital Heliport

Located in Santa Barbara, United States

ICAO - CA96, IATA -

Data provided by Airmate  

General information

Coordinates: N36°50'9" W119°45'53"
Elevation is 450 feet MSL.
 
View others Airports in California

Operational data

Special qualification required
Current time UTC:
Current local time:
Weather at : KFAT - Fresno Yosemite Intl ( 8 km )
METAR: KFAT 211153Z 32005KT 10SM CLR 23/11 A2981 RMK AO2 SLP089 T02280106 10322 20228 53009 $
TAF: KFAT 211120Z 2112/2212 31008KT P6SM SKC
View NOTAMs / SUP AIP / TFR affecting this airport [VIEW]
Communications frequencies: [VIEW]

Runways:

Airport contact information

Address: Santa Barbara United States

Satellite view of CA96